Time;durP1;ratioP1;P1;durP2;ratioP2;P2;SDS_P1;SDS_P2;PMS_P1;PMS_P2;Temp;Humidity;BMP_temperature;BMP_pressure;BME280_temperature;BME280_humidity;BME280_pressure;Samples;Min_cycle;Max_cycle;Signal;HPM_P1;HPM_P2
2020/12/05 00:01:54;;;;;;;14.40;11.67;;;3.80;99.90;;;;;;5093448;28;20436;-70
2020/12/05 00:04:21;;;;;;;16.27;11.43;;;3.80;99.90;;;;;;5093750;28;20417;-70
2020/12/05 00:06:47;;;;;;;17.47;11.47;;;3.70;99.90;;;;;;5093672;28;20439;-70
2020/12/05 00:09:13;;;;;;;17.00;10.67;;;3.70;99.90;;;;;;5093656;28;20491;-70
2020/12/05 00:11:40;;;;;;;14.60;9.73;;;3.70;99.90;;;;;;5093938;28;20420;-69
2020/12/05 00:14:06;;;;;;;14.00;11.13;;;3.70;99.90;;;;;;5093603;28;20452;-69
2020/12/05 00:16:32;;;;;;;15.00;10.07;;;3.70;99.90;;;;;;5093296;28;20813;-68
2020/12/05 00:18:59;;;;;;;16.00;10.50;;;3.80;99.90;;;;;;5093467;28;20436;-69
2020/12/05 00:21:25;;;;;;;17.27;11.40;;;3.70;99.90;;;;;;5093514;28;20440;-68
2020/12/05 00:23:52;;;;;;;15.77;10.97;;;3.70;99.90;;;;;;5093492;28;20493;-69
2020/12/05 00:26:20;;;;;;;20.23;11.60;;;3.60;99.90;;;;;;5093274;28;20448;-69
2020/12/05 00:28:49;;;;;;;15.93;10.80;;;3.60;99.90;;;;;;5095249;28;20483;-69
2020/12/05 00:31:16;;;;;;;19.90;11.47;;;3.60;99.90;;;;;;5097836;28;20456;-70
2020/12/05 00:33:43;;;;;;;17.10;11.10;;;3.60;99.90;;;;;;5097398;28;20447;-70
2020/12/05 00:36:10;;;;;;;16.17;10.50;;;3.50;99.90;;;;;;5097652;28;20427;-70
2020/12/05 00:38:36;;;;;;;17.30;12.00;;;3.40;99.90;;;;;;5097594;28;20435;-70
2020/12/05 00:41:04;;;;;;;19.23;12.43;;;3.30;99.90;;;;;;5097297;28;20482;-71
2020/12/05 00:43:31;;;;;;;18.40;11.63;;;3.40;99.90;;;;;;5097483;28;20919;-70
2020/12/05 00:45:58;;;;;;;21.17;12.50;;;3.40;99.90;;;;;;5097477;28;20474;-70
2020/12/05 00:48:24;;;;;;;22.47;12.33;;;3.40;99.90;;;;;;5096979;28;20440;-70
2020/12/05 00:50:50;;;;;;;18.20;11.20;;;3.40;99.90;;;;;;5096966;28;20471;-70
2020/12/05 00:53:17;;;;;;;18.03;11.43;;;3.40;99.90;;;;;;5097291;28;20446;-69
2020/12/05 00:55:44;;;;;;;21.77;12.37;;;3.40;99.90;;;;;;5096910;28;20939;-70
2020/12/05 00:58:11;;;;;;;18.80;11.40;;;3.40;99.90;;;;;;5097170;28;20439;-70
2020/12/05 01:00:37;;;;;;;20.17;13.27;;;3.40;99.90;;;;;;5097098;28;20460;-70
2020/12/05 01:03:04;;;;;;;18.17;11.50;;;3.50;99.90;;;;;;5097143;28;20424;-70
2020/12/05 01:05:32;;;;;;;20.27;12.43;;;3.50;99.90;;;;;;5097066;28;20446;-70
2020/12/05 01:07:58;;;;;;;19.73;11.70;;;3.40;99.90;;;;;;5097177;28;20493;-70
2020/12/05 01:10:24;;;;;;;19.43;11.80;;;3.50;99.90;;;;;;5096779;28;20506;-70
2020/12/05 01:12:50;;;;;;;16.77;10.80;;;3.40;99.90;;;;;;5097101;28;20452;-70
2020/12/05 01:15:16;;;;;;;16.50;10.90;;;3.40;99.90;;;;;;5096878;28;20444;-71
2020/12/05 01:17:43;;;;;;;15.50;10.60;;;3.30;99.90;;;;;;5096807;28;20448;-72
2020/12/05 01:20:10;;;;;;;15.27;10.40;;;3.20;99.90;;;;;;5096398;28;20463;-72
2020/12/05 01:22:36;;;;;;;17.83;10.87;;;3.20;99.90;;;;;;5096396;28;20443;-71
2020/12/05 01:25:03;;;;;;;19.23;12.27;;;3.20;99.90;;;;;;5096680;28;20424;-72
2020/12/05 01:27:29;;;;;;;18.30;11.77;;;3.20;99.90;;;;;;5096638;28;20436;-71
2020/12/05 01:29:55;;;;;;;16.70;11.73;;;3.10;99.90;;;;;;5096140;28;20487;-71
2020/12/05 01:32:21;;;;;;;18.93;10.27;;;3.00;99.90;;;;;;5096498;28;20451;-71
2020/12/05 01:34:47;;;;;;;18.97;11.60;;;2.80;99.90;;;;;;5096176;28;20467;-71
2020/12/05 01:37:16;;;;;;;17.23;10.60;;;2.70;99.90;;;;;;5096154;28;20439;-71
2020/12/05 01:39:43;;;;;;;16.27;10.40;;;2.60;99.90;;;;;;5095314;28;20990;-70
2020/12/05 01:42:09;;;;;;;15.33;10.63;;;2.40;99.90;;;;;;5096413;28;20420;-71
2020/12/05 01:44:35;;;;;;;15.13;10.17;;;2.20;99.90;;;;;;5096581;28;20424;-69
2020/12/05 01:47:02;;;;;;;17.00;10.73;;;2.20;99.90;;;;;;5096239;28;20447;-70
2020/12/05 01:49:29;;;;;;;17.43;10.23;;;2.10;99.90;;;;;;5095778;28;20479;-69
2020/12/05 01:51:56;;;;;;;16.77;10.77;;;2.10;99.90;;;;;;5096235;28;20425;-69
2020/12/05 01:54:23;;;;;;;17.00;10.60;;;2.10;99.90;;;;;;5095827;28;20966;-70
2020/12/05 01:56:56;;;;;;;16.07;11.30;;;2.00;99.90;;;;;;5096073;28;20444;-69
2020/12/05 01:59:23;;;;;;;18.50;11.50;;;2.00;99.90;;;;;;5096307;28;20935;-69
2020/12/05 02:01:52;;;;;;;16.37;10.90;;;2.00;99.90;;;;;;5096248;28;20768;-68
2020/12/05 02:04:18;;;;;;;14.93;10.87;;;1.90;99.90;;;;;;5095914;28;20440;-68
2020/12/05 02:06:48;;;;;;;12.60;9.87;;;2.00;99.90;;;;;;5095957;28;20420;-69
2020/12/05 02:09:18;;;;;;;14.13;9.90;;;1.90;99.90;;;;;;5095703;28;20483;-68
2020/12/05 02:11:53;;;;;;;14.90;9.90;;;1.90;99.90;;;;;;5095501;28;20915;-69
2020/12/05 02:14:22;;;;;;;19.37;11.33;;;1.90;99.90;;;;;;5095720;28;20423;-68
2020/12/05 02:16:50;;;;;;;17.33;10.63;;;1.90;99.90;;;;;;5095693;28;20779;-69
2020/12/05 02:19:19;;;;;;;19.30;11.53;;;1.90;99.90;;;;;;5095291;28;20456;-68
2020/12/05 02:21:48;;;;;;;20.07;12.10;;;1.90;99.90;;;;;;5095458;28;20464;-68
2020/12/05 02:24:15;;;;;;;18.20;11.53;;;2.00;99.90;;;;;;5095152;28;20791;-68
2020/12/05 02:26:43;;;;;;;19.97;10.97;;;2.10;99.90;;;;;;5095564;28;20440;-68
2020/12/05 02:29:10;;;;;;;20.07;12.50;;;2.00;99.90;;;;;;5095265;28;20453;-68
2020/12/05 02:31:36;;;;;;;17.67;10.50;;;2.10;99.90;;;;;;5095380;28;20436;-67
2020/12/05 02:34:03;;;;;;;21.00;12.10;;;2.00;99.90;;;;;;5095089;28;20476;-67
2020/12/05 02:36:33;;;;;;;19.50;10.57;;;2.00;99.90;;;;;;5095305;28;20418;-67
2020/12/05 02:39:05;;;;;;;18.87;11.33;;;1.90;99.90;;;;;;5094892;28;20424;-67
2020/12/05 02:41:37;;;;;;;13.73;9.80;;;1.80;99.90;;;;;;5094949;28;20518;-67
2020/12/05 02:44:03;;;;;;;15.40;9.23;;;1.80;99.90;;;;;;5095195;28;20424;-67
2020/12/05 02:46:29;;;;;;;14.70;9.20;;;1.80;99.90;;;;;;5095108;28;20490;-67
2020/12/05 02:48:55;;;;;;;16.13;9.73;;;1.70;99.90;;;;;;5094895;28;20476;-67
2020/12/05 02:51:22;;;;;;;14.97;9.50;;;1.70;99.90;;;;;;5094342;28;20444;-67
2020/12/05 02:53:49;;;;;;;22.10;10.27;;;1.80;99.90;;;;;;5094534;28;20440;-67
2020/12/05 02:56:16;;;;;;;14.00;9.03;;;1.70;99.90;;;;;;5094888;28;20440;-68
2020/12/05 02:58:44;;;;;;;13.57;9.27;;;1.70;99.90;;;;;;5094906;28;20489;-67
2020/12/05 03:01:10;;;;;;;12.37;9.27;;;1.80;99.90;;;;;;5094384;28;20460;-67
2020/12/05 03:03:37;;;;;;;15.50;9.60;;;1.70;99.90;;;;;;5095282;28;20436;-67
2020/12/05 03:06:03;;;;;;;15.83;9.23;;;1.70;99.90;;;;;;5094379;28;20801;-67
2020/12/05 03:08:29;;;;;;;18.80;9.60;;;1.70;99.90;;;;;;5094610;28;20440;-68
2020/12/05 03:10:55;;;;;;;13.37;8.00;;;1.70;99.90;;;;;;5094219;28;21005;-68
2020/12/05 03:13:22;;;;;;;14.60;8.27;;;1.70;99.90;;;;;;5094635;28;20426;-69
2020/12/05 03:15:49;;;;;;;12.37;8.30;;;1.70;99.90;;;;;;5094701;28;20440;-72
2020/12/05 03:18:15;;;;;;;13.70;8.00;;;1.70;99.90;;;;;;5094482;28;20444;-72
2020/12/05 03:20:41;;;;;;;13.63;8.13;;;1.60;99.90;;;;;;5094402;28;20829;-71
2020/12/05 03:23:07;;;;;;;12.50;7.50;;;1.60;99.90;;;;;;5094444;28;20391;-71
2020/12/05 03:25:34;;;;;;;11.97;7.90;;;1.60;99.90;;;;;;5094358;28;20442;-71
2020/12/05 03:28:00;;;;;;;9.50;6.50;;;1.60;99.90;;;;;;5094022;28;20936;-71
2020/12/05 03:30:26;;;;;;;13.60;7.77;;;1.60;99.90;;;;;;5094132;28;20484;-71
2020/12/05 03:32:54;;;;;;;12.97;7.70;;;1.60;99.90;;;;;;5094126;28;20448;-71
2020/12/05 03:35:20;;;;;;;12.47;7.70;;;1.60;99.90;;;;;;5093775;28;20484;-71
2020/12/05 03:37:46;;;;;;;12.43;8.07;;;1.70;99.90;;;;;;5094149;28;20466;-71
2020/12/05 03:40:12;;;;;;;13.17;7.60;;;1.80;99.90;;;;;;5094067;28;20456;-71
2020/12/05 03:42:39;;;;;;;12.50;7.53;;;1.80;99.90;;;;;;5093787;28;20527;-71
2020/12/05 03:45:06;;;;;;;11.63;7.60;;;1.80;99.90;;;;;;5094059;28;20447;-71
2020/12/05 03:47:32;;;;;;;12.63;7.30;;;1.80;99.90;;;;;;5093961;28;20444;-71
2020/12/05 03:49:59;;;;;;;9.27;6.93;;;1.80;99.90;;;;;;5093505;28;20479;-71
2020/12/05 03:52:25;;;;;;;15.70;8.20;;;1.80;99.90;;;;;;5093620;28;20444;-71
2020/12/05 03:54:51;;;;;;;9.97;6.40;;;1.80;99.90;;;;;;5093889;28;20427;-71
2020/12/05 03:57:17;;;;;;;12.83;7.93;;;1.80;99.90;;;;;;5093840;28;20463;-71
2020/12/05 03:59:44;;;;;;;9.90;6.50;;;1.90;99.90;;;;;;5093750;28;20452;-71
2020/12/05 04:02:10;;;;;;;9.00;6.77;;;1.90;99.90;;;;;;5093772;28;20441;-71
2020/12/05 04:04:36;;;;;;;9.50;6.23;;;2.00;99.90;;;;;;5093430;28;20444;-71
2020/12/05 04:07:03;;;;;;;12.47;6.73;;;2.00;99.90;;;;;;5093389;28;20943;-71
2020/12/05 04:09:29;;;;;;;11.10;6.90;;;2.00;99.90;;;;;;5093185;28;20839;-71
2020/12/05 04:11:56;;;;;;;10.83;7.17;;;1.90;99.90;;;;;;5093622;28;20458;-70
2020/12/05 04:14:22;;;;;;;11.83;7.30;;;2.00;99.90;;;;;;5093333;28;20870;-70
2020/12/05 04:16:48;;;;;;;11.00;6.73;;;2.00;99.90;;;;;;5093292;28;20962;-70
2020/12/05 04:19:14;;;;;;;7.33;5.83;;;2.00;99.90;;;;;;5093149;28;20975;-70
2020/12/05 04:21:40;;;;;;;11.40;7.30;;;2.00;99.90;;;;;;5093585;28;20395;-71
2020/12/05 04:24:07;;;;;;;9.53;6.57;;;1.90;99.90;;;;;;5093482;28;20403;-70
2020/12/05 04:26:34;;;;;;;10.17;6.50;;;2.00;99.90;;;;;;5093497;28;20447;-71
2020/12/05 04:29:00;;;;;;;12.73;6.67;;;2.00;99.90;;;;;;5093026;28;20839;-71
2020/12/05 04:31:26;;;;;;;11.63;6.53;;;2.00;99.90;;;;;;5093506;28;20428;-71
2020/12/05 04:33:53;;;;;;;10.67;6.63;;;2.00;99.90;;;;;;5093210;28;20471;-71
2020/12/05 04:36:19;;;;;;;8.23;6.07;;;2.00;99.90;;;;;;5093152;28;20420;-71
2020/12/05 04:38:45;;;;;;;7.93;6.57;;;2.00;99.90;;;;;;5093270;28;20418;-71
2020/12/05 04:41:12;;;;;;;8.83;7.00;;;2.00;99.90;;;;;;5092940;28;20985;-71
2020/12/05 04:43:39;;;;;;;9.07;6.43;;;2.00;99.90;;;;;;5093291;28;20787;-71
2020/12/05 04:46:05;;;;;;;7.10;6.00;;;2.00;99.90;;;;;;5093307;28;20447;-71
2020/12/05 04:48:32;;;;;;;9.20;5.90;;;2.00;99.90;;;;;;5093325;28;20429;-70
2020/12/05 04:51:02;;;;;;;9.30;6.13;;;2.00;99.90;;;;;;5093078;28;20480;-70
2020/12/05 04:53:30;;;;;;;9.53;6.10;;;2.00;99.90;;;;;;5094029;28;20539;-70
2020/12/05 04:55:59;;;;;;;9.43;6.13;;;1.90;99.90;;;;;;5093205;28;20444;-70
2020/12/05 04:58:26;;;;;;;10.10;6.80;;;1.90;99.90;;;;;;5093204;28;20439;-70
2020/12/05 05:00:54;;;;;;;8.37;6.27;;;1.90;99.90;;;;;;5093095;28;20452;-70
2020/12/05 05:03:21;;;;;;;7.37;5.60;;;1.90;99.90;;;;;;5093134;28;20427;-70
2020/12/05 05:05:48;;;;;;;9.33;6.17;;;1.90;99.90;;;;;;5093134;28;20817;-70
2020/12/05 05:08:15;;;;;;;12.43;6.87;;;1.90;99.90;;;;;;5093082;28;20441;-70
2020/12/05 05:10:42;;;;;;;8.40;6.37;;;1.90;99.90;;;;;;5092888;28;20531;-71
2020/12/05 05:13:13;;;;;;;7.23;6.10;;;1.90;99.90;;;;;;5092757;28;20424;-70
2020/12/05 05:15:41;;;;;;;10.20;5.20;;;1.90;99.90;;;;;;5094581;28;20428;-70
2020/12/05 05:18:09;;;;;;;9.63;5.30;;;2.00;99.90;;;;;;5096791;28;20427;-71
2020/12/05 05:20:39;;;;;;;9.70;6.70;;;2.00;99.90;;;;;;5096693;28;20455;-70
2020/12/05 05:23:10;;;;;;;9.13;5.70;;;1.90;99.90;;;;;;5096770;28;20432;-70
2020/12/05 05:25:52;;;;;;;7.60;5.70;;;1.90;99.90;;;;;;5096712;28;20442;-70
2020/12/05 05:28:20;;;;;;;7.97;5.37;;;1.80;99.90;;;;;;5094901;28;20454;-70
2020/12/05 05:31:13;;;;;;;7.80;5.73;;;1.80;99.90;;;;;;5096176;28;20476;-70
2020/12/05 05:33:41;;;;;;;7.53;5.50;;;1.90;99.90;;;;;;5096348;28;20447;-70
2020/12/05 05:36:21;;;;;;;6.43;5.20;;;1.90;99.90;;;;;;5096532;28;20445;-70
2020/12/05 05:39:04;;;;;;;7.13;5.33;;;1.80;99.90;;;;;;5096448;28;20446;-70
2020/12/05 05:41:31;;;;;;;7.00;4.33;;;1.90;99.90;;;;;;5096450;28;20424;-70
2020/12/05 05:44:00;;;;;;;6.17;4.10;;;1.90;99.90;;;;;;5096382;28;20443;-70
2020/12/05 05:46:30;;;;;;;5.30;4.50;;;2.00;99.90;;;;;;5096318;28;20436;-70
2020/12/05 05:48:57;;;;;;;6.03;4.57;;;1.90;99.90;;;;;;5095788;28;20974;-70
2020/12/05 05:51:44;;;;;;;6.33;4.00;;;1.90;99.90;;;;;;5095913;28;20864;-70
2020/12/05 05:54:22;;;;;;;4.40;4.00;;;2.00;99.90;;;;;;5096191;28;20428;-70
2020/12/05 05:57:08;;;;;;;5.03;3.50;;;2.00;99.90;;;;;;5096152;28;20482;-71
2020/12/05 05:59:36;;;;;;;3.00;2.70;;;2.00;99.90;;;;;;5095976;28;20460;-70
2020/12/05 06:02:04;;;;;;;5.37;3.00;;;2.00;99.90;;;;;;5096628;28;20872;-71
2020/12/05 06:04:33;;;;;;;3.50;3.20;;;2.00;99.90;;;;;;5095981;28;20783;-71
2020/12/05 06:07:01;;;;;;;3.67;3.17;;;2.00;99.90;;;;;;5096521;28;20416;-71
2020/12/05 06:09:30;;;;;;;2.60;2.40;;;1.90;99.90;;;;;;5096188;28;20462;-71
2020/12/05 06:11:58;;;;;;;2.43;2.23;;;1.90;99.90;;;;;;5095922;28;20416;-71
2020/12/05 06:14:25;;;;;;;2.27;2.07;;;1.90;99.90;;;;;;5095770;28;20428;-71
2020/12/05 06:16:53;;;;;;;3.00;2.60;;;1.80;99.90;;;;;;5095439;28;20455;-71
2020/12/05 06:19:21;;;;;;;2.80;2.20;;;1.90;99.90;;;;;;5095800;28;20459;-68
2020/12/05 06:21:53;;;;;;;1.83;1.73;;;1.90;99.90;;;;;;5095677;28;20447;-69
2020/12/05 06:24:34;;;;;;;3.43;2.80;;;1.90;99.90;;;;;;5095635;28;20436;-71
2020/12/05 06:27:02;;;;;;;4.40;2.47;;;1.90;99.90;;;;;;5095415;28;20420;-71
2020/12/05 06:29:30;;;;;;;1.97;1.87;;;1.90;99.90;;;;;;5095350;28;20495;-71
2020/12/05 06:31:56;;;;;;;2.50;2.30;;;1.90;99.90;;;;;;5095508;28;20391;-71
2020/12/05 06:34:43;;;;;;;2.80;2.20;;;2.00;99.90;;;;;;5095280;28;20537;-71
2020/12/05 06:37:12;;;;;;;2.73;2.20;;;2.00;99.90;;;;;;5095351;28;20459;-71
2020/12/05 06:39:39;;;;;;;2.40;1.90;;;1.90;99.90;;;;;;5094925;28;20452;-71
2020/12/05 06:42:18;;;;;;;2.17;2.00;;;1.90;99.90;;;;;;5094984;28;20431;-71
2020/12/05 06:44:44;;;;;;;3.47;1.90;;;1.90;99.90;;;;;;5095242;28;20416;-71
2020/12/05 06:47:23;;;;;;;2.53;2.30;;;1.90;99.90;;;;;;5095191;28;20550;-72
2020/12/05 06:49:57;;;;;;;3.03;2.40;;;1.90;99.90;;;;;;5094999;28;20603;-71
2020/12/05 06:52:37;;;;;;;2.77;2.50;;;1.90;99.90;;;;;;5095117;28;20487;-72
2020/12/05 06:55:06;;;;;;;2.70;2.27;;;1.80;99.90;;;;;;5094971;28;20454;-72
2020/12/05 06:57:34;;;;;;;2.03;1.90;;;1.80;99.90;;;;;;5094646;28;20962;-71
2020/12/05 07:00:21;;;;;;;3.10;2.43;;;1.80;99.90;;;;;;5094824;28;20456;-71
2020/12/05 07:02:56;;;;;;;1.90;1.77;;;1.80;99.90;;;;;;5094669;28;21009;-71
2020/12/05 07:05:33;;;;;;;1.90;1.73;;;1.90;99.90;;;;;;5095648;28;20477;-71
2020/12/05 07:08:01;;;;;;;1.80;1.70;;;1.90;99.90;;;;;;5094794;28;20424;-71
2020/12/05 07:10:52;;;;;;;4.30;1.63;;;1.90;99.90;;;;;;5094582;28;20506;-71
2020/12/05 07:13:39;;;;;;;2.03;1.60;;;1.90;99.90;;;;;;5094693;28;20439;-72
2020/12/05 07:16:10;;;;;;;1.90;1.70;;;1.90;99.90;;;;;;5094098;28;20444;-71
2020/12/05 07:18:38;;;;;;;1.87;1.40;;;1.80;99.90;;;;;;5094489;28;20391;-71
2020/12/05 07:21:06;;;;;;;2.03;1.93;;;1.80;99.90;;;;;;5094073;28;20448;-71
2020/12/05 07:23:32;;;;;;;2.20;1.70;;;1.80;99.90;;;;;;5094470;28;20436;-71
2020/12/05 07:25:59;;;;;;;1.60;1.50;;;1.80;99.90;;;;;;5094090;28;20481;-71
2020/12/05 07:28:26;;;;;;;2.30;1.60;;;1.80;99.90;;;;;;5094401;28;20424;-71
2020/12/05 07:30:53;;;;;;;3.33;2.30;;;1.90;99.90;;;;;;5094212;28;20483;-71
2020/12/05 07:33:20;;;;;;;1.80;1.70;;;1.90;99.90;;;;;;5094295;28;20807;-71
2020/12/05 07:35:47;;;;;;;2.90;2.07;;;1.90;99.90;;;;;;5093844;28;20517;-71
2020/12/05 07:38:15;;;;;;;3.57;2.17;;;1.90;99.90;;;;;;5093648;28;20435;-71
2020/12/05 07:40:42;;;;;;;2.30;2.10;;;2.00;99.90;;;;;;5094074;28;20955;-71
2020/12/05 07:43:19;;;;;;;2.60;2.00;;;2.00;99.90;;;;;;5094119;28;20406;-71
2020/12/05 07:45:47;;;;;;;1.90;1.73;;;2.00;99.90;;;;;;5094047;28;20426;-71
2020/12/05 07:48:15;;;;;;;1.53;1.43;;;2.00;99.90;;;;;;5093979;28;20440;-71
2020/12/05 07:50:41;;;;;;;3.73;1.33;;;2.00;99.90;;;;;;5093760;28;20532;-71
2020/12/05 07:53:33;;;;;;;1.77;1.67;;;2.00;99.90;;;;;;5093863;28;20827;-71
2020/12/05 07:56:12;;;;;;;1.50;1.40;;;2.00;99.90;;;;;;5090358;28;20456;-71
2020/12/05 07:58:47;;;;;;;2.00;1.33;;;2.00;99.90;;;;;;5093602;28;20909;-71
2020/12/05 08:01:35;;;;;;;1.70;1.17;;;2.00;99.90;;;;;;5093446;28;21039;-71
2020/12/05 08:04:39;;;;;;;1.50;1.40;;;2.10;99.90;;;;;;5080643;28;20430;-71
2020/12/05 08:07:11;;;;;;;1.23;1.10;;;2.10;99.90;;;;;;5057120;28;20447;-71
2020/12/05 08:09:39;;;;;;;1.83;1.20;;;2.20;99.90;;;;;;5093523;28;20484;-71
2020/12/05 08:12:12;;;;;;;4.20;1.10;;;2.20;99.90;;;;;;5093685;28;20442;-71
2020/12/05 08:14:43;;;;;;;2.37;2.13;;;2.20;99.90;;;;;;5093288;28;20424;-71
2020/12/05 08:17:11;;;;;;;2.10;1.77;;;2.20;99.90;;;;;;5093610;28;20420;-71
2020/12/05 08:19:40;;;;;;;3.33;3.00;;;2.20;99.90;;;;;;5093486;28;20451;-71
2020/12/05 08:22:08;;;;;;;1.90;1.50;;;2.20;99.90;;;;;;5093562;28;20420;-71
2020/12/05 08:24:37;;;;;;;2.70;2.20;;;2.20;99.90;;;;;;5093508;28;20572;-71
2020/12/05 08:27:05;;;;;;;2.47;1.87;;;2.20;99.90;;;;;;5093222;28;20922;-71
2020/12/05 08:29:32;;;;;;;2.97;1.70;;;2.10;99.90;;;;;;5092937;28;21022;-71
2020/12/05 08:31:59;;;;;;;2.83;2.37;;;2.20;99.90;;;;;;5093048;28;20915;-71
2020/12/05 08:34:29;;;;;;;3.23;2.07;;;2.20;99.90;;;;;;5093067;28;20499;-71
2020/12/05 08:36:56;;;;;;;1.73;1.63;;;2.20;99.90;;;;;;5093414;28;20493;-71
2020/12/05 08:39:24;;;;;;;2.70;1.60;;;2.30;99.90;;;;;;5093353;28;20468;-71
2020/12/05 08:41:52;;;;;;;0.90;0.90;;;2.40;99.90;;;;;;5093066;28;20443;-71
2020/12/05 08:44:22;;;;;;;1.83;1.50;;;2.40;99.90;;;;;;5093311;28;20562;-71
2020/12/05 08:47:00;;;;;;;1.53;1.43;;;2.40;99.90;;;;;;5093319;28;20428;-72
2020/12/05 08:49:26;;;;;;;3.33;2.40;;;2.40;99.90;;;;;;5093197;28;20479;-71
2020/12/05 08:51:53;;;;;;;3.50;2.30;;;2.40;99.90;;;;;;5096668;28;20930;-71
2020/12/05 08:54:20;;;;;;;3.13;2.23;;;2.50;99.90;;;;;;5097278;28;20447;-71
2020/12/05 08:56:46;;;;;;;2.20;2.00;;;2.50;99.90;;;;;;5097247;28;20447;-71
2020/12/05 08:59:24;;;;;;;3.20;2.90;;;2.50;99.90;;;;;;5097209;28;20448;-71
2020/12/05 09:01:53;;;;;;;2.67;2.43;;;2.50;99.90;;;;;;5097147;28;20428;-71
2020/12/05 09:04:26;;;;;;;1.47;1.37;;;2.50;99.90;;;;;;5096819;28;20906;-71
2020/12/05 09:06:52;;;;;;;2.30;1.60;;;2.60;99.90;;;;;;5097130;28;20417;-70
2020/12/05 09:09:28;;;;;;;1.80;1.70;;;2.60;99.90;;;;;;5096889;28;20452;-71
2020/12/05 09:12:02;;;;;;;1.40;1.30;;;2.60;99.90;;;;;;5097085;28;20481;-71
2020/12/05 09:14:28;;;;;;;1.50;1.40;;;2.60;99.90;;;;;;5097006;28;20416;-71
2020/12/05 09:16:55;;;;;;;3.30;1.90;;;2.70;99.90;;;;;;5096911;28;20420;-70
2020/12/05 09:19:23;;;;;;;1.73;1.63;;;2.70;99.90;;;;;;5096751;28;20479;-70
2020/12/05 09:21:49;;;;;;;1.87;1.50;;;2.70;99.90;;;;;;5096276;28;20922;-69
2020/12/05 09:24:15;;;;;;;3.13;2.60;;;2.80;99.90;;;;;;5096665;28;20410;-70
2020/12/05 09:26:52;;;;;;;3.00;2.73;;;2.80;99.90;;;;;;5096720;28;20420;-70
2020/12/05 09:29:18;;;;;;;1.70;1.60;;;2.80;99.90;;;;;;5096142;28;21012;-70
2020/12/05 09:31:49;;;;;;;2.10;1.90;;;2.90;99.90;;;;;;5096253;28;20895;-72
2020/12/05 09:34:16;;;;;;;5.60;4.13;;;2.90;99.90;;;;;;5096400;28;20472;-71
2020/12/05 09:36:42;;;;;;;2.23;1.80;;;2.90;99.90;;;;;;5096172;28;20950;-70
2020/12/05 09:39:09;;;;;;;1.50;1.40;;;2.90;99.90;;;;;;5096132;28;20910;-71
2020/12/05 09:41:37;;;;;;;5.27;4.77;;;2.90;99.90;;;;;;5096513;28;20510;-69
2020/12/05 09:44:03;;;;;;;2.73;1.63;;;2.90;99.90;;;;;;5096424;28;20809;-69
2020/12/05 09:46:30;;;;;;;1.50;1.40;;;2.90;99.90;;;;;;5096384;28;20427;-69
2020/12/05 09:48:56;;;;;;;2.40;1.80;;;2.90;99.90;;;;;;5096333;28;20491;-68
2020/12/05 09:51:23;;;;;;;2.30;1.87;;;2.90;99.90;;;;;;5096171;28;20478;-67
2020/12/05 09:53:49;;;;;;;2.40;1.67;;;3.00;99.90;;;;;;5096177;28;20439;-70
2020/12/05 09:56:15;;;;;;;3.97;2.23;;;3.00;99.90;;;;;;5095783;28;20443;-69
2020/12/05 09:58:41;;;;;;;2.90;2.07;;;3.10;99.90;;;;;;5096033;28;20433;-68
2020/12/05 10:01:07;;;;;;;2.00;1.83;;;3.10;99.90;;;;;;5095059;28;20456;-68
2020/12/05 10:03:34;;;;;;;2.27;2.10;;;3.10;99.90;;;;;;5096036;28;20413;-70
2020/12/05 10:06:01;;;;;;;1.83;1.73;;;3.10;99.90;;;;;;5096025;28;20424;-70
2020/12/05 10:08:28;;;;;;;2.13;1.70;;;3.20;99.90;;;;;;5095576;28;20957;-69
2020/12/05 10:10:54;;;;;;;2.50;2.20;;;3.10;99.90;;;;;;5095730;28;20483;-69
2020/12/05 10:13:20;;;;;;;2.03;1.60;;;3.20;99.90;;;;;;5095805;28;20455;-69
2020/12/05 10:15:46;;;;;;;2.90;1.73;;;3.20;99.90;;;;;;5095768;28;20447;-70
2020/12/05 10:18:13;;;;;;;1.73;1.63;;;3.20;99.90;;;;;;5095794;28;20434;-70
2020/12/05 10:20:39;;;;;;;3.90;2.87;;;3.20;99.90;;;;;;5095669;28;20456;-69
2020/12/05 10:23:05;;;;;;;3.63;2.83;;;3.30;99.90;;;;;;5095697;28;20421;-70
2020/12/05 10:25:32;;;;;;;11.13;7.30;;;3.30;99.90;;;;;;5095608;28;20431;-69
2020/12/05 10:27:58;;;;;;;6.57;4.40;;;3.30;99.90;;;;;;5095628;28;20428;-69
2020/12/05 10:30:24;;;;;;;2.00;1.90;;;3.30;99.90;;;;;;5094933;28;20484;-70
2020/12/05 10:32:51;;;;;;;1.90;1.80;;;3.40;99.90;;;;;;5095404;28;20416;-69
2020/12/05 10:35:17;;;;;;;2.97;2.67;;;3.50;99.90;;;;;;5094872;28;20472;-69
2020/12/05 10:37:43;;;;;;;3.20;2.27;;;3.40;99.90;;;;;;5095306;28;20421;-69
2020/12/05 10:40:09;;;;;;;2.50;2.30;;;3.30;99.90;;;;;;5095215;28;20464;-70
2020/12/05 10:42:36;;;;;;;3.10;2.43;;;3.20;99.90;;;;;;5095264;28;20420;-69
2020/12/05 10:45:02;;;;;;;5.20;3.13;;;3.20;99.90;;;;;;5095210;28;20424;-69
2020/12/05 10:47:29;;;;;;;5.00;4.17;;;3.10;99.90;;;;;;5095267;28;20453;-69
2020/12/05 10:49:55;;;;;;;3.97;2.90;;;3.10;99.90;;;;;;5094983;28;20479;-69
2020/12/05 10:52:21;;;;;;;4.70;3.20;;;3.00;99.90;;;;;;5095078;28;20432;-69
2020/12/05 10:54:47;;;;;;;5.17;4.57;;;3.00;99.90;;;;;;5095569;28;20417;-69
2020/12/05 10:57:13;;;;;;;5.20;4.60;;;3.00;99.90;;;;;;5094881;28;20425;-69
2020/12/05 10:59:40;;;;;;;4.63;4.17;;;3.10;99.90;;;;;;5094817;28;20479;-70
2020/12/05 11:02:06;;;;;;;4.63;3.40;;;3.10;99.90;;;;;;5094605;28;20432;-69
2020/12/05 11:04:33;;;;;;;4.53;4.10;;;3.10;99.90;;;;;;5094884;28;20413;-69
2020/12/05 11:06:59;;;;;;;5.13;4.20;;;3.10;99.90;;;;;;5094751;28;20798;-69
2020/12/05 11:09:25;;;;;;;4.40;3.77;;;3.10;99.90;;;;;;5094567;28;20467;-69
2020/12/05 11:11:52;;;;;;;4.63;4.23;;;3.10;99.90;;;;;;5094314;28;20975;-70
2020/12/05 11:14:18;;;;;;;6.47;4.53;;;3.20;99.90;;;;;;5093748;28;20428;-69
2020/12/05 11:16:45;;;;;;;4.77;4.27;;;3.20;99.90;;;;;;5094638;28;20806;-70
2020/12/05 11:19:11;;;;;;;6.47;5.30;;;3.20;99.90;;;;;;5094506;28;20773;-70
2020/12/05 11:21:38;;;;;;;5.40;4.63;;;3.30;99.90;;;;;;5094551;28;20421;-70
2020/12/05 11:24:04;;;;;;;6.53;4.77;;;3.30;99.90;;;;;;5094483;28;20435;-69
2020/12/05 11:26:30;;;;;;;5.27;4.87;;;3.20;99.90;;;;;;5094432;28;20432;-70
2020/12/05 11:28:56;;;;;;;6.83;5.60;;;3.30;99.90;;;;;;5094438;28;20417;-68
2020/12/05 11:31:22;;;;;;;5.33;4.47;;;3.30;99.90;;;;;;5093970;28;20467;-70
2020/12/05 11:33:49;;;;;;;6.23;5.13;;;3.20;99.90;;;;;;5094083;28;20476;-69
2020/12/05 11:36:16;;;;;;;6.20;5.40;;;3.30;99.90;;;;;;5094296;28;20417;-68
2020/12/05 11:38:42;;;;;;;4.90;4.50;;;3.40;99.90;;;;;;5094224;28;20438;-68
2020/12/05 11:41:08;;;;;;;7.40;5.63;;;3.40;99.90;;;;;;5094058;28;20464;-68
2020/12/05 11:43:34;;;;;;;5.90;5.30;;;3.30;99.90;;;;;;5093861;28;20900;-68
2020/12/05 11:46:00;;;;;;;6.57;5.80;;;3.30;99.90;;;;;;5094100;28;20427;-68
2020/12/05 11:48:27;;;;;;;5.23;4.73;;;3.30;99.90;;;;;;5094085;28;20777;-68
2020/12/05 11:50:54;;;;;;;7.30;5.30;;;3.30;99.90;;;;;;5093875;28;20625;-69
2020/12/05 11:53:20;;;;;;;8.57;5.60;;;3.30;99.90;;;;;;5093718;28;20431;-69
2020/12/05 11:55:46;;;;;;;12.77;10.60;;;3.40;99.90;;;;;;5093963;28;20435;-68
2020/12/05 11:58:12;;;;;;;9.83;7.87;;;3.40;99.90;;;;;;5093928;28;20490;-68
2020/12/05 12:00:38;;;;;;;11.00;8.03;;;3.40;99.90;;;;;;5093840;28;20460;-68
2020/12/05 12:03:05;;;;;;;6.00;5.27;;;3.40;99.90;;;;;;5093873;28;20417;-68
2020/12/05 12:05:31;;;;;;;5.33;4.53;;;3.40;99.90;;;;;;5093504;28;20887;-68
2020/12/05 12:07:58;;;;;;;5.67;4.77;;;3.40;99.90;;;;;;5093854;28;20431;-68
2020/12/05 12:10:24;;;;;;;6.37;5.77;;;3.50;99.90;;;;;;5093589;28;20484;-68
2020/12/05 12:12:51;;;;;;;12.70;10.23;;;3.40;99.90;;;;;;5093710;28;20421;-68
2020/12/05 12:15:17;;;;;;;8.80;6.20;;;3.50;99.90;;;;;;5093421;28;20914;-68
2020/12/05 12:17:43;;;;;;;6.40;5.63;;;3.50;99.90;;;;;;5093626;28;20431;-68
2020/12/05 12:20:10;;;;;;;7.77;6.97;;;3.50;99.90;;;;;;5093562;28;20448;-69
2020/12/05 12:22:36;;;;;;;8.77;6.53;;;3.50;99.90;;;;;;5093326;28;20968;-68
2020/12/05 12:25:05;;;;;;;8.03;6.20;;;3.50;99.90;;;;;;5093286;28;20439;-68
2020/12/05 12:27:31;;;;;;;11.37;9.43;;;3.60;99.90;;;;;;5093537;28;20412;-68
2020/12/05 12:29:57;;;;;;;18.13;13.87;;;3.60;99.90;;;;;;5093332;28;20486;-68
2020/12/05 12:32:23;;;;;;;24.40;20.20;;;3.70;99.90;;;;;;5093510;28;20424;-68
2020/12/05 12:34:51;;;;;;;10.63;8.53;;;3.70;99.90;;;;;;5093026;28;20480;-68
2020/12/05 12:37:17;;;;;;;6.80;6.10;;;3.60;99.90;;;;;;5093363;28;20474;-68
2020/12/05 12:39:44;;;;;;;12.80;7.73;;;3.60;99.90;;;;;;5093284;28;20467;-69
2020/12/05 12:42:11;;;;;;;10.43;7.10;;;3.60;99.90;;;;;;5093354;28;20474;-68
2020/12/05 12:44:37;;;;;;;9.10;7.60;;;3.60;99.90;;;;;;5093341;28;20432;-69
2020/12/05 12:47:16;;;;;;;8.60;7.20;;;3.50;99.90;;;;;;5093309;28;20424;-69
2020/12/05 12:49:42;;;;;;;11.27;7.80;;;3.40;99.90;;;;;;5093250;28;20471;-69
2020/12/05 12:52:09;;;;;;;12.10;8.10;;;3.40;99.90;;;;;;5093210;28;20471;-69
2020/12/05 12:54:36;;;;;;;10.37;7.43;;;3.50;99.90;;;;;;5092908;28;20899;-69
2020/12/05 12:57:02;;;;;;;9.63;8.13;;;3.50;99.90;;;;;;5093173;28;20427;-68